Time;durP1;ratioP1;P1;durP2;ratioP2;P2;SDS_P1;SDS_P2;PMS_P1;PMS_P2;Temp;Humidity;BMP_temperature;BMP_pressure;BME280_temperature;BME280_humidity;BME280_pressure;Samples;Min_cycle;Max_cycle;Signal;HPM_P1;HPM_P2
2023/12/12 00:01:04;;;;;;;5.70;1.10;;;;;;;8.70;100.00;98942.49;180422;1255;45867;-83
2023/12/12 00:05:16;;;;;;;1.30;0.90;;;;;;;8.60;100.00;98946.84;179649;1254;46055;-85
2023/12/12 00:09:19;;;;;;;1.20;1.10;;;;;;;8.63;100.00;98946.04;179266;1258;46217;-85
2023/12/12 00:13:23;;;;;;;6.00;1.70;;;;;;;8.65;100.00;98953.43;178981;1254;46064;-85
2023/12/12 00:17:26;;;;;;;3.80;1.50;;;;;;;8.64;100.00;98960.05;178656;1258;59571;-85
2023/12/12 00:21:30;;;;;;;5.30;1.80;;;;;;;8.64;100.00;98957.97;179650;1257;46119;-87
2023/12/12 00:25:33;;;;;;;1.80;1.00;;;;;;;8.60;100.00;98971.55;179570;1254;46445;-84
2023/12/12 00:29:38;;;;;;;1.50;0.90;;;;;;;8.58;100.00;98982.06;179818;1254;45981;-85
2023/12/12 00:33:41;;;;;;;0.90;0.70;;;;;;;8.53;100.00;98987.03;178434;1258;46829;-85
2023/12/12 00:37:44;;;;;;;1.70;1.60;;;;;;;8.53;100.00;98997.90;178944;1254;58045;-87
2023/12/12 00:41:48;;;;;;;1.40;1.30;;;;;;;8.49;100.00;99003.50;178591;1255;44830;-84
2023/12/12 00:45:52;;;;;;;2.50;1.20;;;;;;;8.50;100.00;99003.02;178962;1256;46146;-86
2023/12/12 00:49:55;;;;;;;4.30;2.20;;;;;;;8.54;100.00;99004.87;179983;1254;46084;-85
2023/12/12 00:53:58;;;;;;;2.40;1.10;;;;;;;8.56;100.00;99011.33;179107;1254;46095;-86
2023/12/12 00:58:04;;;;;;;3.80;1.30;;;;;;;8.58;100.00;99015.98;179354;1255;60167;-85
2023/12/12 01:02:08;;;;;;;4.10;1.30;;;;;;;8.59;100.00;99025.58;178512;1256;46276;-85
2023/12/12 01:06:25;;;;;;;3.30;1.20;;;;;;;8.57;100.00;99023.98;178431;1256;46056;-85
2023/12/12 01:10:31;;;;;;;2.20;1.20;;;;;;;8.60;100.00;99040.84;179821;1255;45765;-86
2023/12/12 01:14:35;;;;;;;0.40;0.40;;;;;;;8.61;100.00;99042.20;179682;1258;45984;-86
2023/12/12 01:18:38;;;;;;;0.90;0.70;;;;;;;8.54;100.00;99045.82;180070;1254;59569;-83
2023/12/12 01:22:41;;;;;;;1.20;0.80;;;;;;;8.55;100.00;99057.92;178290;1254;45895;-85
2023/12/12 01:26:44;;;;;;;1.60;0.60;;;;;;;8.54;100.00;99067.09;179478;1255;46098;-84
2023/12/12 01:30:48;;;;;;;0.30;0.30;;;;;;;8.46;100.00;99066.32;179388;1255;46448;-84
2023/12/12 01:34:51;;;;;;;0.80;0.80;;;;;;;8.47;100.00;99063.98;179764;1254;44771;-84
2023/12/12 01:38:54;;;;;;;1.30;0.70;;;;;;;8.48;100.00;99077.11;179818;1257;60273;-82
2023/12/12 01:43:05;;;;;;;1.60;1.00;;;;;;;8.48;100.00;99080.60;180161;1255;45965;-85
2023/12/12 01:47:10;;;;;;;0.70;0.70;;;;;;;8.45;100.00;99090.08;179654;1256;45972;-86
2023/12/12 01:51:16;;;;;;;3.00;0.90;;;;;;;8.42;100.00;99088.40;179929;1254;45959;-86
2023/12/12 01:55:19;;;;;;;1.70;1.10;;;;;;;8.41;100.00;99097.16;179195;1255;46078;-85
2023/12/12 01:59:24;;;;;;;4.80;0.80;;;;;;;8.38;100.00;99098.25;179720;1256;59599;-86
2023/12/12 02:03:29;;;;;;;10.80;1.60;;;;;;;8.39;100.00;99099.96;178525;1254;46002;-86
2023/12/12 02:07:35;;;;;;;1.10;0.60;;;;;;;8.41;100.00;99109.14;180325;1258;45185;-83
2023/12/12 02:11:41;;;;;;;0.80;0.80;;;;;;;8.41;100.00;99116.02;180406;1254;44237;-80
2023/12/12 02:15:44;;;;;;;1.70;1.10;;;;;;;8.43;100.00;99123.27;181163;1255;45988;-84
2023/12/12 02:19:48;;;;;;;9.60;1.30;;;;;;;8.44;100.00;99123.20;179180;1254;58021;-84
2023/12/12 02:23:51;;;;;;;0.90;0.60;;;;;;;8.43;100.00;99136.02;179442;1255;46424;-86
2023/12/12 02:27:55;;;;;;;0.50;0.40;;;;;;;8.45;100.00;99143.41;178496;1255;46581;-83
2023/12/12 02:31:59;;;;;;;1.10;0.50;;;;;;;8.46;100.00;99150.08;179007;1254;46024;-84
2023/12/12 02:36:03;;;;;;;3.00;0.70;;;;;;;8.45;100.00;99152.29;179531;1254;44327;-84
2023/12/12 02:40:08;;;;;;;3.30;1.50;;;;;;;8.45;100.00;99153.68;178472;1254;59453;-85
2023/12/12 02:44:11;;;;;;;0.90;0.90;;;;;;;8.45;100.00;99161.08;178872;1254;45888;-85
2023/12/12 02:48:16;;;;;;;1.90;1.20;;;;;;;8.44;100.00;99163.84;178912;1254;46546;-85
2023/12/12 02:52:19;;;;;;;1.00;0.90;;;;;;;8.42;100.00;99161.89;179047;1254;46107;-85
2023/12/12 02:56:23;;;;;;;3.80;0.90;;;;;;;8.46;100.00;99172.91;178729;1254;46004;-86
2023/12/12 03:00:26;;;;;;;1.40;0.60;;;;;;;8.46;100.00;99172.35;179118;1258;61458;-85
2023/12/12 03:04:30;;;;;;;1.10;0.40;;;;;;;8.47;100.00;99179.13;179288;1254;44639;-84
2023/12/12 03:08:33;;;;;;;2.70;0.90;;;;;;;8.43;100.00;99182.13;179389;1255;44888;-86
2023/12/12 03:12:36;;;;;;;0.60;0.60;;;;;;;8.45;100.00;99184.44;179709;1254;44308;-83
2023/12/12 03:16:40;;;;;;;0.90;0.80;;;;;;;8.44;100.00;99187.35;179602;1254;46014;-85
2023/12/12 03:20:43;;;;;;;1.10;0.60;;;;;;;8.37;100.00;99199.14;179619;1257;60159;-86
2023/12/12 03:24:46;;;;;;;2.20;0.80;;;;;;;8.39;100.00;99193.66;180530;1258;44520;-85
2023/12/12 03:28:49;;;;;;;1.10;0.80;;;;;;;8.34;100.00;99198.84;179980;1254;45985;-84
2023/12/12 03:32:52;;;;;;;1.50;0.80;;;;;;;8.27;100.00;99198.52;180447;1257;44373;-84
2023/12/12 03:36:56;;;;;;;1.70;0.80;;;;;;;8.20;100.00;99197.05;179989;1253;46089;-86
2023/12/12 03:41:00;;;;;;;1.80;1.10;;;;;;;8.13;100.00;99203.88;179045;1254;60990;-83
2023/12/12 03:45:06;;;;;;;4.40;0.80;;;;;;;8.09;100.00;99215.73;180024;1255;45979;-83
2023/12/12 03:49:09;;;;;;;1.70;0.80;;;;;;;8.07;100.00;99221.53;179566;1255;44831;-85
2023/12/12 03:53:13;;;;;;;1.90;0.50;;;;;;;8.10;100.00;99226.41;178744;1255;45940;-86
2023/12/12 03:57:16;;;;;;;1.50;1.00;;;;;;;7.94;100.00;99231.16;179781;1256;46027;-85
2023/12/12 04:01:20;;;;;;;1.20;0.70;;;;;;;7.91;100.00;99234.77;178729;1254;58669;-84
2023/12/12 04:05:23;;;;;;;1.40;0.50;;;;;;;7.83;100.00;99241.05;178798;1258;45956;-85
2023/12/12 04:09:26;;;;;;;2.10;0.70;;;;;;;7.84;100.00;99244.52;179229;1254;46087;-85
2023/12/12 04:13:29;;;;;;;2.10;1.20;;;;;;;7.85;100.00;99259.42;178865;1254;46638;-83
2023/12/12 04:17:33;;;;;;;1.50;1.10;;;;;;;7.86;100.00;99267.63;178868;1258;45983;-83
2023/12/12 04:21:36;;;;;;;1.60;1.50;;;;;;;7.87;100.00;99276.77;180271;1258;59693;-83
2023/12/12 04:25:39;;;;;;;3.10;1.40;;;;;;;7.85;100.00;99287.29;178685;1259;45930;-82
2023/12/12 04:29:43;;;;;;;2.30;1.90;;;;;;;7.79;100.00;99287.42;179459;1256;44051;-82
2023/12/12 04:33:46;;;;;;;4.20;2.40;;;;;;;7.68;100.00;99289.70;179070;1258;46018;-83
2023/12/12 04:37:49;;;;;;;2.80;2.20;;;;;;;7.62;100.00;99299.00;180886;1254;44137;-83
2023/12/12 04:41:52;;;;;;;5.60;3.10;;;;;;;7.57;100.00;99302.77;181570;1255;59573;-84
2023/12/12 04:45:56;;;;;;;3.50;1.40;;;;;;;7.56;100.00;99305.65;180167;1254;46278;-84
2023/12/12 04:49:59;;;;;;;2.60;1.60;;;;;;;7.48;100.00;99303.17;179415;1255;45839;-84
2023/12/12 04:54:02;;;;;;;2.70;1.50;;;;;;;7.52;100.00;99305.65;179098;1257;46175;-84
2023/12/12 04:58:06;;;;;;;3.20;2.40;;;;;;;7.62;100.00;99311.50;178681;1255;46047;-83
2023/12/12 05:02:09;;;;;;;2.80;1.70;;;;;;;7.66;100.00;99317.22;179623;1255;57784;-83
2023/12/12 05:06:12;;;;;;;3.50;1.70;;;;;;;7.66;100.00;99320.92;179769;1254;44321;-85
2023/12/12 05:10:15;;;;;;;5.10;2.40;;;;;;;7.63;100.00;99316.61;178628;1258;46077;-84
2023/12/12 05:14:19;;;;;;;6.00;1.90;;;;;;;7.61;100.00;99323.09;180010;1258;44128;-82
2023/12/12 05:18:22;;;;;;;3.90;2.00;;;;;;;7.63;100.00;99322.77;179646;1254;46130;-83
2023/12/12 05:22:25;;;;;;;2.40;2.10;;;;;;;7.63;100.00;99322.39;179475;1254;58696;-83
2023/12/12 05:26:28;;;;;;;2.30;1.40;;;;;;;7.61;100.00;99320.95;178904;1254;46040;-83
2023/12/12 05:30:31;;;;;;;4.20;2.10;;;;;;;7.60;100.00;99324.03;179794;1254;45950;-84
2023/12/12 05:34:35;;;;;;;2.20;1.50;;;;;;;7.61;100.00;99321.31;179340;1254;46093;-84
2023/12/12 05:38:38;;;;;;;4.10;1.90;;;;;;;7.52;100.00;99330.52;178769;1257;46237;-84
2023/12/12 05:42:43;;;;;;;7.40;3.70;;;;;;;7.54;100.00;99335.28;178921;1253;59972;-84
2023/12/12 05:46:46;;;;;;;1.60;1.40;;;;;;;7.56;100.00;99340.61;178417;1260;45975;-83
2023/12/12 05:50:49;;;;;;;5.40;2.80;;;;;;;7.54;100.00;99349.26;179486;1254;46109;-83
2023/12/12 05:54:53;;;;;;;3.90;1.90;;;;;;;7.54;100.00;99353.80;179785;1254;44019;-83
2023/12/12 05:58:56;;;;;;;3.50;2.60;;;;;;;7.57;100.00;99362.24;179650;1254;46023;-83
2023/12/12 06:02:59;;;;;;;7.60;3.80;;;;;;;7.55;100.00;99367.46;179858;1254;59473;-84
2023/12/12 06:07:03;;;;;;;7.40;3.20;;;;;;;7.57;100.00;99369.66;180314;1254;44144;-84
2023/12/12 06:11:06;;;;;;;4.00;3.00;;;;;;;7.57;100.00;99370.48;180340;1254;45570;-84
2023/12/12 06:15:09;;;;;;;3.40;2.40;;;;;;;7.54;100.00;99372.00;178282;1254;45982;-82
2023/12/12 06:19:13;;;;;;;1.70;1.50;;;;;;;7.54;100.00;99377.30;178873;1254;46153;-85
2023/12/12 06:23:17;;;;;;;5.30;1.60;;;;;;;7.49;100.00;99380.40;178970;1257;59587;-83
2023/12/12 06:27:20;;;;;;;2.70;1.40;;;;;;;7.46;100.00;99388.86;179337;1255;46493;-84
2023/12/12 06:31:26;;;;;;;4.10;1.70;;;;;;;7.46;100.00;99393.30;180273;1254;46023;-84
2023/12/12 06:35:31;;;;;;;2.40;1.60;;;;;;;7.49;100.00;99390.97;178721;1254;46127;-83
2023/12/12 06:39:34;;;;;;;2.80;1.40;;;;;;;7.49;100.00;99391.52;179539;1254;46425;-85
2023/12/12 06:43:37;;;;;;;4.00;1.40;;;;;;;7.51;100.00;99398.52;179300;1257;59531;-83
2023/12/12 06:47:40;;;;;;;2.40;1.80;;;;;;;7.46;100.00;99398.58;178791;1254;45980;-84
2023/12/12 06:51:44;;;;;;;2.10;1.90;;;;;;;7.48;100.00;99402.16;178926;1254;45990;-84
2023/12/12 06:55:48;;;;;;;2.40;1.70;;;;;;;7.51;100.00;99409.67;178556;1257;45921;-85
2023/12/12 06:59:52;;;;;;;5.50;2.80;;;;;;;7.49;100.00;99413.89;179039;1259;46258;-83
2023/12/12 07:03:57;;;;;;;3.60;1.50;;;;;;;7.42;100.00;99409.68;179887;1254;58511;-83
2023/12/12 07:08:02;;;;;;;5.20;2.70;;;;;;;7.38;100.00;99409.13;178486;1257;46071;-84
2023/12/12 07:12:06;;;;;;;4.10;2.30;;;;;;;7.35;100.00;99413.98;179817;1254;45907;-84
2023/12/12 07:16:10;;;;;;;5.10;1.50;;;;;;;7.33;100.00;99420.86;178728;1254;45292;-85
2023/12/12 07:20:13;;;;;;;3.60;2.50;;;;;;;7.35;100.00;99427.40;179089;1254;46204;-85
2023/12/12 07:24:17;;;;;;;2.70;2.00;;;;;;;7.31;100.00;99436.33;179234;1254;57917;-85
2023/12/12 07:28:20;;;;;;;2.90;1.90;;;;;;;7.28;100.00;99444.52;179909;1254;45911;-84
2023/12/12 07:32:26;;;;;;;2.90;1.80;;;;;;;7.31;100.00;99450.08;178765;1253;46094;-84
2023/12/12 07:36:29;;;;;;;2.50;1.70;;;;;;;7.36;100.00;99451.29;179586;1254;44368;-85
2023/12/12 07:40:33;;;;;;;3.00;1.90;;;;;;;7.28;100.00;99453.30;179813;1254;46067;-84
2023/12/12 07:44:36;;;;;;;2.50;1.60;;;;;;;7.27;100.00;99459.23;178679;1254;58545;-84
2023/12/12 07:48:40;;;;;;;3.10;2.20;;;;;;;7.35;100.00;99457.91;179022;1254;46081;-84
2023/12/12 07:52:44;;;;;;;3.40;2.00;;;;;;;7.42;100.00;99458.04;179648;1254;45930;-85
2023/12/12 07:56:47;;;;;;;1.70;1.60;;;;;;;7.51;100.00;99458.55;179007;1254;46130;-86
2023/12/12 08:00:50;;;;;;;3.80;2.80;;;;;;;7.58;100.00;99457.96;178586;1254;44466;-84
2023/12/12 08:04:54;;;;;;;4.80;2.70;;;;;;;7.65;100.00;99458.98;178584;1254;61164;-84
2023/12/12 08:09:02;;;;;;;4.00;2.20;;;;;;;7.73;100.00;99457.64;178189;1254;45981;-84
2023/12/12 08:13:05;;;;;;;6.30;2.30;;;;;;;7.80;100.00;99453.73;178369;1254;44959;-82
2023/12/12 08:17:08;;;;;;;14.80;3.20;;;;;;;7.86;100.00;99455.61;178734;1254;46053;-80
2023/12/12 08:21:11;;;;;;;9.50;3.50;;;;;;;7.91;100.00;99450.52;179129;1254;46552;-80
2023/12/12 08:25:15;;;;;;;5.30;3.20;;;;;;;7.93;100.00;99457.56;178613;1254;59473;-85
2023/12/12 08:29:18;;;;;;;3.20;2.40;;;;;;;8.02;100.00;99465.81;178880;1254;46410;-84
2023/12/12 08:33:21;;;;;;;2.90;2.40;;;;;;;8.10;100.00;99470.22;178749;1254;46096;-84
2023/12/12 08:37:25;;;;;;;5.40;2.20;;;;;;;8.16;100.00;99465.52;178810;1254;45615;-84
2023/12/12 08:41:30;;;;;;;9.90;2.00;;;;;;;8.20;100.00;99471.76;179054;1254;45994;-83
2023/12/12 08:45:34;;;;;;;3.20;2.00;;;;;;;8.21;100.00;99476.55;179411;1254;59878;-83
2023/12/12 08:49:37;;;;;;;7.00;2.20;;;;;;;8.25;100.00;99477.66;178510;1254;46067;-83
2023/12/12 08:53:40;;;;;;;4.50;1.80;;;;;;;8.32;100.00;99478.09;179084;1254;46015;-83
2023/12/12 08:57:46;;;;;;;2.40;1.40;;;;;;;8.37;100.00;99475.52;179064;1254;181877;-82
2023/12/12 09:01:49;;;;;;;6.20;1.80;;;;;;;8.34;100.00;99469.27;179200;1254;44098;-83
2023/12/12 09:05:53;;;;;;;3.60;1.80;;;;;;;8.34;100.00;99468.98;179017;1254;59237;-84
2023/12/12 09:09:56;;;;;;;3.40;2.00;;;;;;;8.32;100.00;99471.81;178852;1254;45952;-84
2023/12/12 09:14:00;;;;;;;4.00;2.40;;;;;;;8.34;100.00;99477.02;180296;1252;45246;-81
2023/12/12 09:18:03;;;;;;;5.40;2.80;;;;;;;8.45;100.00;99472.92;179448;1254;45966;-85
2023/12/12 09:22:21;;;;;;;2.40;2.00;;;;;;;8.54;100.00;99473.96;178902;1253;46076;-85
2023/12/12 09:26:24;;;;;;;4.70;1.80;;;;;;;8.67;100.00;99479.46;179031;1254;59633;-85
2023/12/12 09:30:28;;;;;;;4.40;2.00;;;;;;;8.65;100.00;99480.12;179258;1254;44832;-85
2023/12/12 09:34:31;;;;;;;3.40;2.40;;;;;;;8.82;100.00;99474.73;179039;1254;44568;-84
2023/12/12 09:38:34;;;;;;;8.00;2.60;;;;;;;9.01;100.00;99473.43;178784;1254;44132;-84
2023/12/12 09:42:40;;;;;;;6.00;1.90;;;;;;;9.16;100.00;99466.52;179357;1254;44834;-83
2023/12/12 09:46:44;;;;;;;3.60;1.80;;;;;;;9.23;99.28;99457.01;178833;1254;60044;-84
2023/12/12 09:50:49;;;;;;;2.40;1.00;;;;;;;9.15;98.91;99456.84;178870;1254;46029;-84
2023/12/12 09:54:52;;;;;;;5.90;1.90;;;;;;;9.15;99.96;99457.58;179249;1257;45969;-83
2023/12/12 09:58:56;;;;;;;3.60;2.50;;;;;;;9.17;100.00;99461.43;178253;1257;46184;-85
2023/12/12 10:03:05;;;;;;;2.60;1.50;;;;;;;9.16;100.00;99463.89;179458;1254;46102;-84
2023/12/12 10:07:11;;;;;;;3.90;1.60;;;;;;;9.12;99.57;99458.17;178449;1254;60124;-84
2023/12/12 10:11:15;;;;;;;5.50;1.60;;;;;;;9.13;99.60;99454.23;178223;1255;45114;-85
2023/12/12 10:15:23;;;;;;;7.60;2.50;;;;;;;9.18;98.66;99453.44;178872;1254;44687;-86
2023/12/12 10:19:26;;;;;;;2.70;2.40;;;;;;;9.26;99.72;99454.59;179641;1254;46121;-85
2023/12/12 10:23:32;;;;;;;2.20;1.50;;;;;;;9.40;99.69;99457.08;178918;1254;46078;-83
2023/12/12 10:27:35;;;;;;;;;;;;;;;9.54;99.30;99460.08;178592;1254;57743;-86
2023/12/12 10:31:38;;;;;;;2.70;2.10;;;;;;;9.72;98.46;99463.61;178415;1254;43851;-86
2023/12/12 10:35:45;;;;;;;3.70;1.70;;;;;;;9.79;95.46;99469.57;179900;1254;45971;-84
2023/12/12 10:39:49;;;;;;;1.50;1.40;;;;;;;9.80;94.86;99473.73;178521;1254;46174;-84
2023/12/12 10:43:52;;;;;;;10.00;1.40;;;;;;;9.78;92.90;99470.48;178872;1254;44424;-85
2023/12/12 10:47:58;;;;;;;2.20;1.60;;;;;;;9.63;92.48;99472.70;179115;1254;58527;-83
2023/12/12 10:52:05;;;;;;;2.60;2.00;;;;;;;9.51;94.61;99468.01;179749;1254;46037;-80
2023/12/12 10:56:14;;;;;;;2.70;1.50;;;;;;;9.40;93.86;99463.30;179058;1254;45274;-84
2023/12/12 11:00:20;;;;;;;2.60;1.30;;;;;;;9.34;94.76;99463.02;179426;1254;45978;-85
2023/12/12 11:04:24;;;;;;;2.70;1.70;;;;;;;9.28;95.39;99463.10;179187;1254;46081;-84
2023/12/12 11:08:29;;;;;;;1.50;1.10;;;;;;;9.13;94.45;99456.34;179089;1254;58299;-85
2023/12/12 11:12:34;;;;;;;3.30;1.40;;;;;;;9.06;95.24;99468.65;178886;1255;46006;-83
2023/12/12 11:16:37;;;;;;;2.70;1.20;;;;;;;9.00;95.13;99475.89;178958;1254;46646;-84
2023/12/12 11:20:41;;;;;;;1.80;1.20;;;;;;;8.97;96.42;99484.92;179078;1254;46886;-84
2023/12/12 11:25:08;;;;;;;2.50;1.30;;;;;;;9.06;97.70;99480.25;179960;1254;46163;-83
2023/12/12 11:29:15;;;;;;;;;;;;;;;9.14;97.54;99479.38;180562;1254;58759;-85
2023/12/12 11:33:18;;;;;;;2.20;1.10;;;;;;;9.17;95.03;99472.06;179389;1254;45766;-85
2023/12/12 11:37:39;;;;;;;4.70;1.70;;;;;;;9.20;94.59;99466.32;179339;1254;45920;-84
2023/12/12 11:41:43;;;;;;;3.90;1.10;;;;;;;9.24;96.64;99469.71;179570;1253;45967;-84
2023/12/12 11:45:46;;;;;;;2.90;1.40;;;;;;;9.26;95.27;99470.70;178784;1255;45958;-84
2023/12/12 11:49:50;;;;;;;2.90;1.30;;;;;;;9.31;95.69;99465.70;179767;1253;58233;-85
2023/12/12 11:53:53;;;;;;;2.00;1.10;;;;;;;9.38;94.43;99460.48;179207;1254;45982;-84
2023/12/12 11:58:01;;;;;;;2.90;1.00;;;;;;;9.38;95.08;99459.41;179087;1254;44401;-86
2023/12/12 12:02:05;;;;;;;3.30;1.40;;;;;;;9.40;94.90;99456.04;179201;1254;46113;-85
2023/12/12 12:06:09;;;;;;;3.00;1.50;;;;;;;9.42;94.65;99451.96;178542;1254;46098;-82
2023/12/12 12:10:12;;;;;;;2.90;1.70;;;;;;;9.43;95.68;99451.67;178942;1254;58113;-85
2023/12/12 12:14:23;;;;;;;2.20;1.40;;;;;;;9.46;95.19;99443.86;179182;1254;46029;-84
2023/12/12 12:18:27;;;;;;;2.10;1.50;;;;;;;9.51;95.21;99438.58;180035;1254;43997;-84
2023/12/12 12:22:30;;;;;;;3.30;1.70;;;;;;;9.58;95.02;99437.42;180025;1254;44191;-85
2023/12/12 12:26:34;;;;;;;6.10;1.40;;;;;;;9.69;95.26;99439.41;179722;1254;45946;-84
2023/12/12 12:30:45;;;;;;;11.20;1.40;;;;;;;9.77;94.65;99438.70;179578;1255;58194;-83
2023/12/12 12:34:48;;;;;;;1.40;0.90;;;;;;;9.81;93.96;99439.44;179192;1254;45914;-83
2023/12/12 12:38:51;;;;;;;3.00;1.10;;;;;;;9.82;93.54;99437.71;178705;1254;46075;-84
2023/12/12 12:42:55;;;;;;;2.50;0.50;;;;;;;9.79;93.30;99437.85;179268;1254;44201;-85
2023/12/12 12:46:58;;;;;;;2.00;0.80;;;;;;;9.72;92.48;99438.45;179228;1254;44375;-85
2023/12/12 12:51:01;;;;;;;6.60;2.50;;;;;;;9.67;92.72;99432.27;179415;1254;58741;-83
2023/12/12 12:55:05;;;;;;;3.50;1.40;;;;;;;9.65;93.74;99437.04;179464;1254;44725;-83
2023/12/12 12:59:18;;;;;;;2.80;1.20;;;;;;;9.66;94.06;99430.23;179078;1254;46379;-85
2023/12/12 13:03:21;;;;;;;6.60;2.20;;;;;;;9.69;95.21;99422.64;179478;1254;46913;-83
2023/12/12 13:07:25;;;;;;;2.30;1.20;;;;;;;9.74;95.89;99414.19;179659;1254;45954;-85
2023/12/12 13:11:28;;;;;;;2.40;1.70;;;;;;;9.69;93.64;99407.73;180017;1254;59249;-84
2023/12/12 13:15:31;;;;;;;2.80;1.50;;;;;;;9.71;94.41;99403.54;178964;1254;46519;-85
2023/12/12 13:19:34;;;;;;;5.20;1.40;;;;;;;9.67;94.20;99403.21;179895;1254;44128;-84
2023/12/12 13:23:37;;;;;;;5.50;2.20;;;;;;;9.57;96.32;99407.48;179512;1254;45927;-85
2023/12/12 13:27:41;;;;;;;5.90;2.00;;;;;;;9.50;97.45;99406.70;178990;1254;46001;-84
2023/12/12 13:31:45;;;;;;;3.00;1.60;;;;;;;9.57;98.15;99407.24;178823;1254;60095;-83
2023/12/12 13:35:48;;;;;;;4.30;2.40;;;;;;;9.61;97.89;99407.10;178602;1254;44470;-83
2023/12/12 13:39:51;;;;;;;5.50;2.00;;;;;;;9.52;96.92;99404.38;178976;1254;45920;-85
2023/12/12 13:43:54;;;;;;;10.30;2.20;;;;;;;9.36;96.72;99405.99;179998;1254;46092;-81
2023/12/12 13:47:58;;;;;;;2.90;1.90;;;;;;;9.27;97.94;99402.30;179160;1254;46088;-85
2023/12/12 13:52:03;;;;;;;4.90;2.40;;;;;;;9.17;98.96;99401.29;179212;1254;59608;-83
2023/12/12 13:56:08;;;;;;;4.60;2.50;;;;;;;9.15;99.57;99402.70;179249;1254;45918;-85
2023/12/12 14:00:12;;;;;;;3.80;1.60;;;;;;;9.21;99.21;99401.29;178776;1255;46197;-84
2023/12/12 14:04:20;;;;;;;3.40;2.10;;;;;;;9.23;98.79;99397.55;179868;1257;46030;-83
2023/12/12 14:08:23;;;;;;;7.90;2.30;;;;;;;9.28;99.20;99394.45;181228;1254;44062;-84
2023/12/12 14:12:26;;;;;;;3.90;2.20;;;;;;;9.35;99.17;99397.42;180459;1254;59533;-84
2023/12/12 14:16:30;;;;;;;2.90;1.80;;;;;;;9.40;98.65;99394.31;179972;1254;45926;-84
2023/12/12 14:20:37;;;;;;;5.90;1.90;;;;;;;9.43;98.16;99399.83;178618;1254;46554;-85
2023/12/12 14:24:41;;;;;;;7.40;2.90;;;;;;;9.44;97.22;99399.63;179164;1255;45965;-84
2023/12/12 14:28:48;;;;;;;24.20;10.50;;;;;;;9.40;97.63;99399.77;180021;1254;46095;-84
2023/12/12 14:32:59;;;;;;;35.60;17.30;;;;;;;9.41;97.70;99403.36;179628;1254;58035;-84
2023/12/12 14:37:02;;;;;;;31.80;16.00;;;;;;;9.41;97.27;99406.23;179995;1254;44063;-84
2023/12/12 14:41:08;;;;;;;21.20;10.30;;;;;;;9.34;97.25;99416.14;178788;1254;45964;-84
2023/12/12 14:45:12;;;;;;;16.60;6.20;;;;;;;9.29;97.99;99416.69;179306;1254;46083;-83
2023/12/12 14:49:19;;;;;;;8.70;4.70;;;;;;;9.25;98.12;99421.30;178990;1254;46018;-84
2023/12/12 14:53:23;;;;;;;21.90;6.80;;;;;;;9.21;98.57;99421.07;179410;1254;59259;-84
2023/12/12 14:57:26;;;;;;;18.30;7.80;;;;;;;9.13;98.39;99417.40;179206;1254;45971;-84
2023/12/12 15:01:30;;;;;;;20.80;13.60;;;;;;;8.97;99.29;99418.61;179537;1256;45978;-84
2023/12/12 15:05:34;;;;;;;27.60;15.60;;;;;;;8.86;99.99;99418.34;179472;1254;44111;-83
2023/12/12 15:09:37;;;;;;;24.30;16.30;;;;;;;8.82;100.00;99411.27;179356;1254;45575;-84
2023/12/12 15:13:40;;;;;;;26.40;13.80;;;;;;;8.71;100.00;99414.91;180067;1254;58707;-85
2023/12/12 15:17:46;;;;;;;16.30;9.70;;;;;;;8.55;100.00;99405.85;179144;1254;46051;-81
2023/12/12 15:21:51;;;;;;;42.10;25.00;;;;;;;8.39;100.00;99399.94;179463;1257;46189;-85
2023/12/12 15:25:54;;;;;;;62.80;45.40;;;;;;;8.40;100.00;99395.15;179126;1254;46001;-82
2023/12/12 15:29:57;;;;;;;32.30;19.50;;;;;;;8.40;100.00;99393.16;178642;1254;45942;-84
2023/12/12 15:34:01;;;;;;;18.00;10.40;;;;;;;8.22;100.00;99397.88;179174;1254;58287;-85
2023/12/12 15:38:05;;;;;;;18.50;10.10;;;;;;;8.06;100.00;99405.59;179534;1254;46115;-86
2023/12/12 15:42:09;;;;;;;32.20;21.30;;;;;;;7.98;100.00;99400.44;179472;1254;44395;-84
2023/12/12 15:46:18;;;;;;;29.20;20.30;;;;;;;7.92;100.00;99394.25;179259;1254;45996;-84
2023/12/12 15:50:22;;;;;;;35.30;28.40;;;;;;;7.95;100.00;99383.26;179522;1254;46084;-81
2023/12/12 15:54:25;;;;;;;30.60;20.90;;;;;;;7.88;100.00;99381.48;179309;1254;59531;-85
2023/12/12 15:58:28;;;;;;;26.10;17.90;;;;;;;7.85;100.00;99375.95;179168;1254;46017;-85
2023/12/12 16:02:32;;;;;;;22.80;17.00;;;;;;;7.90;100.00;99370.08;178807;1254;45126;-84
2023/12/12 16:06:35;;;;;;;26.70;18.10;;;;;;;7.98;100.00;99359.52;178768;1254;45933;-85
2023/12/12 16:10:40;;;;;;;31.90;17.30;;;;;;;8.06;100.00;99351.20;179812;1254;46120;-84
2023/12/12 16:14:44;;;;;;;26.40;15.80;;;;;;;8.03;100.00;99355.52;179998;1254;58187;-83
2023/12/12 16:18:47;;;;;;;24.80;15.90;;;;;;;8.00;100.00;99357.75;179452;1254;46119;-83
2023/12/12 16:22:51;;;;;;;37.70;18.90;;;;;;;8.06;100.00;99358.42;179439;1254;45986;-84
2023/12/12 16:26:54;;;;;;;32.90;17.90;;;;;;;8.11;100.00;99353.09;179043;1254;45969;-84
2023/12/12 16:30:59;;;;;;;42.30;21.00;;;;;;;8.13;100.00;99352.92;179007;1254;45956;-85
2023/12/12 16:35:03;;;;;;;25.10;17.50;;;;;;;8.11;100.00;99354.48;178711;1254;60050;-83
2023/12/12 16:39:07;;;;;;;26.50;14.00;;;;;;;8.10;100.00;99353.48;179403;1254;44011;-83
2023/12/12 16:43:11;;;;;;;22.00;14.60;;;;;;;8.11;100.00;99358.55;178829;1257;46161;-83
2023/12/12 16:47:14;;;;;;;20.90;15.60;;;;;;;8.14;100.00;99360.20;179086;1258;46614;-83
2023/12/12 16:51:17;;;;;;;24.40;16.60;;;;;;;8.09;100.00;99357.88;179609;1255;46080;-83
2023/12/12 16:55:40;;;;;;;21.80;15.40;;;;;;;7.97;100.00;99355.14;179748;1254;57906;-84
2023/12/12 16:59:43;;;;;;;32.70;17.50;;;;;;;7.91;100.00;99354.98;178326;1255;46093;-83
2023/12/12 17:03:46;;;;;;;25.70;17.10;;;;;;;7.94;100.00;99343.04;179512;1254;45954;-84
2023/12/12 17:07:49;;;;;;;26.50;18.20;;;;;;;7.99;100.00;99337.36;178664;1254;45971;-83
2023/12/12 17:11:52;;;;;;;27.90;19.00;;;;;;;7.95;100.00;99340.66;179227;1256;45224;-84
2023/12/12 17:15:57;;;;;;;33.20;22.80;;;;;;;7.80;100.00;99339.63;179398;1254;57655;-82
2023/12/12 17:20:01;;;;;;;47.80;29.10;;;;;;;7.71;100.00;99328.03;178850;1255;45853;-83
2023/12/12 17:24:04;;;;;;;65.70;43.80;;;;;;;7.64;100.00;99325.45;178535;1254;45942;-83
2023/12/12 17:28:11;;;;;;;46.00;30.70;;;;;;;7.60;100.00;99319.66;179175;1255;45918;-83
2023/12/12 17:32:14;;;;;;;40.70;30.60;;;;;;;7.54;100.00;99315.73;179536;1257;45275;-83
2023/12/12 17:36:17;;;;;;;36.30;25.90;;;;;;;7.47;100.00;99312.05;179934;1254;57787;-80
2023/12/12 17:40:20;;;;;;;23.10;18.10;;;;;;;7.41;100.00;99304.98;178813;1255;46030;-84
2023/12/12 17:44:24;;;;;;;33.50;20.50;;;;;;;7.27;100.00;99301.21;178955;1254;44060;-83
2023/12/12 17:48:27;;;;;;;21.30;16.20;;;;;;;7.27;100.00;99297.87;179157;1256;46113;-83
2023/12/12 17:52:30;;;;;;;30.40;22.40;;;;;;;7.24;100.00;99294.25;178450;1253;46117;-83
2023/12/12 17:56:34;;;;;;;34.20;21.60;;;;;;;7.10;100.00;99294.39;178876;1254;59129;-82
2023/12/12 18:00:37;;;;;;;39.40;26.60;;;;;;;7.14;100.00;99287.09;180038;1254;46093;-83
2023/12/12 18:04:40;;;;;;;32.80;23.30;;;;;;;7.08;100.00;99283.70;178768;1254;46079;-83
2023/12/12 18:08:44;;;;;;;41.50;25.90;;;;;;;7.07;100.00;99284.73;179342;1254;44273;-80
2023/12/12 18:12:47;;;;;;;34.90;24.30;;;;;;;7.09;100.00;99280.30;178394;1258;46001;-82
2023/12/12 18:16:50;;;;;;;45.40;27.70;;;;;;;7.00;100.00;99274.38;179174;1255;59285;-82
2023/12/12 18:20:53;;;;;;;54.80;34.00;;;;;;;6.94;100.00;99272.03;179061;1256;44470;-82
2023/12/12 18:24:56;;;;;;;57.50;35.60;;;;;;;6.87;100.00;99268.88;179366;1254;46078;-85
2023/12/12 18:29:03;;;;;;;62.10;38.10;;;;;;;6.83;100.00;99267.79;179204;1257;46087;-85
2023/12/12 18:33:07;;;;;;;50.90;35.20;;;;;;;6.89;100.00;99263.11;179371;1254;46026;-84
2023/12/12 18:37:10;;;;;;;60.30;43.20;;;;;;;6.94;100.00;99258.80;179523;1256;59523;-85
2023/12/12 18:41:16;;;;;;;119.70;63.80;;;;;;;7.00;100.00;99254.08;179825;1254;45943;-83
2023/12/12 18:45:21;;;;;;;204.10;112.70;;;;;;;7.04;100.00;99250.27;178989;1254;46077;-81
2023/12/12 18:49:28;;;;;;;123.70;67.60;;;;;;;6.97;100.00;99249.03;178929;1254;45972;-84
2023/12/12 18:53:31;;;;;;;69.10;41.50;;;;;;;6.83;100.00;99245.23;179946;1255;46092;-86